sensor_id;sensor_type;location;lat;lon;timestamp;pressure;altitude;pressure_sealevel;temperature;humidity
9139;BME280;4604;48.616;9.548;2024-01-06T00:00:34;95696.53;;;6.31;100.00
9139;BME280;4604;48.616;9.548;2024-01-06T00:03:01;95724.59;;;6.48;100.00
9139;BME280;4604;48.616;9.548;2024-01-06T00:05:28;95731.63;;;6.48;100.00
9139;BME280;4604;48.616;9.548;2024-01-06T00:07:54;95725.72;;;6.46;100.00
9139;BME280;4604;48.616;9.548;2024-01-06T00:10:21;95714.31;;;6.37;100.00
9139;BME280;4604;48.616;9.548;2024-01-06T00:12:48;95737.16;;;6.45;100.00
9139;BME280;4604;48.616;9.548;2024-01-06T00:15:17;95738.81;;;6.46;100.00
9139;BME280;4604;48.616;9.548;2024-01-06T00:17:43;95711.69;;;6.37;100.00
9139;BME280;4604;48.616;9.548;2024-01-06T00:20:10;95736.06;;;6.47;100.00
9139;BME280;4604;48.616;9.548;2024-01-06T00:22:37;95722.59;;;6.32;100.00
9139;BME280;4604;48.616;9.548;2024-01-06T00:25:05;95733.88;;;6.42;100.00
9139;BME280;4604;48.616;9.548;2024-01-06T00:27:31;95745.03;;;6.45;100.00
9139;BME280;4604;48.616;9.548;2024-01-06T00:29:58;95733.34;;;6.39;100.00
9139;BME280;4604;48.616;9.548;2024-01-06T00:32:26;95732.50;;;6.38;100.00
9139;BME280;4604;48.616;9.548;2024-01-06T00:34:53;95733.91;;;6.33;100.00
9139;BME280;4604;48.616;9.548;2024-01-06T00:37:20;95703.06;;;6.17;100.00
9139;BME280;4604;48.616;9.548;2024-01-06T00:39:47;95733.72;;;6.44;100.00
9139;BME280;4604;48.616;9.548;2024-01-06T00:42:14;95735.81;;;6.31;100.00
9139;BME280;4604;48.616;9.548;2024-01-06T00:44:40;95723.88;;;6.18;100.00
9139;BME280;4604;48.616;9.548;2024-01-06T00:47:07;95719.34;;;6.11;100.00
9139;BME280;4604;48.616;9.548;2024-01-06T00:49:35;95732.53;;;6.19;100.00
9139;BME280;4604;48.616;9.548;2024-01-06T00:52:02;95732.53;;;6.19;100.00
9139;BME280;4604;48.616;9.548;2024-01-06T00:54:28;95733.25;;;6.11;100.00
9139;BME280;4604;48.616;9.548;2024-01-06T00:56:55;95730.53;;;6.03;100.00
9139;BME280;4604;48.616;9.548;2024-01-06T00:59:22;95729.72;;;6.03;100.00
9139;BME280;4604;48.616;9.548;2024-01-06T01:01:48;95737.28;;;6.06;100.00
9139;BME280;4604;48.616;9.548;2024-01-06T01:04:15;95742.50;;;6.06;100.00
9139;BME280;4604;48.616;9.548;2024-01-06T01:06:43;95745.00;;;6.07;100.00
9139;BME280;4604;48.616;9.548;2024-01-06T01:09:10;95741.81;;;6.04;100.00
9139;BME280;4604;48.616;9.548;2024-01-06T01:11:39;95741.41;;;6.08;100.00
9139;BME280;4604;48.616;9.548;2024-01-06T01:14:05;95737.81;;;5.99;100.00
9139;BME280;4604;48.616;9.548;2024-01-06T01:16:32;95734.53;;;6.07;100.00
9139;BME280;4604;48.616;9.548;2024-01-06T01:18:59;95744.03;;;6.08;100.00
9139;BME280;4604;48.616;9.548;2024-01-06T01:21:27;95733.13;;;6.03;100.00
9139;BME280;4604;48.616;9.548;2024-01-06T01:23:55;95751.19;;;6.06;100.00
9139;BME280;4604;48.616;9.548;2024-01-06T01:26:22;95739.22;;;5.94;100.00
9139;BME280;4604;48.616;9.548;2024-01-06T01:28:48;95746.78;;;5.97;100.00
9139;BME280;4604;48.616;9.548;2024-01-06T01:31:15;95755.59;;;6.06;100.00
9139;BME280;4604;48.616;9.548;2024-01-06T01:33:42;95752.00;;;6.07;100.00
9139;BME280;4604;48.616;9.548;2024-01-06T01:36:09;95755.75;;;5.94;100.00
9139;BME280;4604;48.616;9.548;2024-01-06T01:38:35;95766.63;;;5.99;100.00
9139;BME280;4604;48.616;9.548;2024-01-06T01:41:03;95763.84;;;5.91;100.00
9139;BME280;4604;48.616;9.548;2024-01-06T01:43:30;95763.84;;;5.91;100.00
9139;BME280;4604;48.616;9.548;2024-01-06T01:45:57;95768.56;;;5.88;100.00
9139;BME280;4604;48.616;9.548;2024-01-06T01:48:24;95780.13;;;5.95;100.00
9139;BME280;4604;48.616;9.548;2024-01-06T01:50:53;95758.63;;;5.82;100.00
9139;BME280;4604;48.616;9.548;2024-01-06T01:53:20;95768.81;;;5.85;100.00
9139;BME280;4604;48.616;9.548;2024-01-06T01:55:50;95730.53;;;5.54;100.00
9139;BME280;4604;48.616;9.548;2024-01-06T01:58:19;95757.81;;;5.71;100.00
9139;BME280;4604;48.616;9.548;2024-01-06T02:00:49;95794.28;;;5.83;100.00
9139;BME280;4604;48.616;9.548;2024-01-06T02:03:16;95748.44;;;5.59;100.00
9139;BME280;4604;48.616;9.548;2024-01-06T02:05:44;95783.81;;;5.73;100.00
9139;BME280;4604;48.616;9.548;2024-01-06T02:08:11;95728.31;;;5.40;100.00
9139;BME280;4604;48.616;9.548;2024-01-06T02:10:38;95732.16;;;5.46;100.00
9139;BME280;4604;48.616;9.548;2024-01-06T02:13:09;95742.09;;;5.52;100.00
9139;BME280;4604;48.616;9.548;2024-01-06T02:15:37;95784.81;;;5.72;100.00
9139;BME280;4604;48.616;9.548;2024-01-06T02:18:05;95765.78;;;5.60;100.00
9139;BME280;4604;48.616;9.548;2024-01-06T02:20:32;95785.38;;;5.66;100.00
9139;BME280;4604;48.616;9.548;2024-01-06T02:23:00;95721.56;;;5.28;100.00
9139;BME280;4604;48.616;9.548;2024-01-06T02:25:27;95767.56;;;5.60;100.00
9139;BME280;4604;48.616;9.548;2024-01-06T02:27:54;95795.28;;;5.72;100.00
9139;BME280;4604;48.616;9.548;2024-01-06T02:30:21;95773.50;;;5.52;100.00
9139;BME280;4604;48.616;9.548;2024-01-06T02:32:48;95759.03;;;5.38;100.00
9139;BME280;4604;48.616;9.548;2024-01-06T02:35:14;95773.91;;;5.47;100.00
9139;BME280;4604;48.616;9.548;2024-01-06T02:37:41;95765.50;;;5.44;100.00
9139;BME280;4604;48.616;9.548;2024-01-06T02:40:10;95797.59;;;5.55;100.00
9139;BME280;4604;48.616;9.548;2024-01-06T02:42:37;95770.59;;;5.35;100.00
9139;BME280;4604;48.616;9.548;2024-01-06T02:45:04;95780.53;;;5.42;100.00
9139;BME280;4604;48.616;9.548;2024-01-06T02:47:31;95810.97;;;5.62;100.00
9139;BME280;4604;48.616;9.548;2024-01-06T02:49:58;95809.16;;;5.63;100.00
9139;BME280;4604;48.616;9.548;2024-01-06T02:52:24;95806.72;;;5.61;100.00
9139;BME280;4604;48.616;9.548;2024-01-06T02:54:51;95811.66;;;5.54;100.00
9139;BME280;4604;48.616;9.548;2024-01-06T02:57:19;95810.84;;;5.64;100.00
9139;BME280;4604;48.616;9.548;2024-01-06T02:59:46;95802.13;;;5.53;100.00
9139;BME280;4604;48.616;9.548;2024-01-06T03:02:13;95806.69;;;5.51;100.00
9139;BME280;4604;48.616;9.548;2024-01-06T03:04:39;95811.66;;;5.54;100.00
9139;BME280;4604;48.616;9.548;2024-01-06T03:07:06;95781.88;;;5.36;100.00
9139;BME280;4604;48.616;9.548;2024-01-06T03:09:33;95805.03;;;5.50;100.00
9139;BME280;4604;48.616;9.548;2024-01-06T03:11:59;95804.63;;;5.55;100.00
9139;BME280;4604;48.616;9.548;2024-01-06T03:14:27;95817.00;;;5.53;100.00
9139;BME280;4604;48.616;9.548;2024-01-06T03:16:54;95814.94;;;5.47;100.00
9139;BME280;4604;48.616;9.548;2024-01-06T03:19:22;95820.03;;;5.48;100.00
9139;BME280;4604;48.616;9.548;2024-01-06T03:21:51;95807.53;;;5.52;100.00
9139;BME280;4604;48.616;9.548;2024-01-06T03:24:18;95815.78;;;5.47;100.00
9139;BME280;4604;48.616;9.548;2024-01-06T03:26:44;95819.50;;;5.45;100.00
9139;BME280;4604;48.616;9.548;2024-01-06T03:29:11;95814.25;;;5.45;100.00
9139;BME280;4604;48.616;9.548;2024-01-06T03:31:41;95810.25;;;5.50;100.00
9139;BME280;4604;48.616;9.548;2024-01-06T03:34:08;95804.75;;;5.53;100.00
9139;BME280;4604;48.616;9.548;2024-01-06T03:36:36;95801.06;;;5.46;100.00
9139;BME280;4604;48.616;9.548;2024-01-06T03:39:03;95794.16;;;5.45;100.00
9139;BME280;4604;48.616;9.548;2024-01-06T03:41:30;95804.22;;;5.50;100.00
9139;BME280;4604;48.616;9.548;2024-01-06T03:43:56;95785.59;;;5.33;100.00
9139;BME280;4604;48.616;9.548;2024-01-06T03:46:23;95798.97;;;5.50;100.00
9139;BME280;4604;48.616;9.548;2024-01-06T03:48:51;95769.34;;;5.30;100.00
9139;BME280;4604;48.616;9.548;2024-01-06T03:51:18;95805.03;;;5.50;100.00
9139;BME280;4604;48.616;9.548;2024-01-06T03:53:44;95776.91;;;5.33;100.00
9139;BME280;4604;48.616;9.548;2024-01-06T03:56:13;95812.19;;;5.48;100.00
9139;BME280;4604;48.616;9.548;2024-01-06T03:58:39;95820.03;;;5.48;100.00
9139;BME280;4604;48.616;9.548;2024-01-06T04:01:06;95817.97;;;5.42;100.00
9139;BME280;4604;48.616;9.548;2024-01-06T04:03:33;95794.25;;;5.24;100.00
9139;BME280;4604;48.616;9.548;2024-01-06T04:06:01;95809.81;;;5.35;100.00
9139;BME280;4604;48.616;9.548;2024-01-06T04:08:28;95817.41;;;5.39;100.00
9139;BME280;4604;48.616;9.548;2024-01-06T04:10:55;95827.72;;;5.40;100.00
9139;BME280;4604;48.616;9.548;2024-01-06T04:13:21;95819.06;;;5.40;100.00
9139;BME280;4604;48.616;9.548;2024-01-06T04:15:50;95822.50;;;5.40;100.00
9139;BME280;4604;48.616;9.548;2024-01-06T04:18:17;95832.44;;;5.36;100.00
9139;BME280;4604;48.616;9.548;2024-01-06T04:20:44;95832.00;;;5.41;100.00
9139;BME280;4604;48.616;9.548;2024-01-06T04:23:12;95805.78;;;5.22;100.00
9139;BME280;4604;48.616;9.548;2024-01-06T04:25:38;95803.31;;;5.20;100.00
9139;BME280;4604;48.616;9.548;2024-01-06T04:28:05;95804.97;;;5.21;100.00
9139;BME280;4604;48.616;9.548;2024-01-06T04:30:32;95787.34;;;5.13;100.00
9139;BME280;4604;48.616;9.548;2024-01-06T04:32:59;95784.41;;;5.07;100.00
9139;BME280;4604;48.616;9.548;2024-01-06T04:35:25;95808.41;;;5.22;100.00
9139;BME280;4604;48.616;9.548;2024-01-06T04:37:52;95814.50;;;5.22;100.00
9139;BME280;4604;48.616;9.548;2024-01-06T04:40:20;95791.72;;;5.03;100.00
9139;BME280;4604;48.616;9.548;2024-01-06T04:42:47;95804.69;;;5.14;100.00
9139;BME280;4604;48.616;9.548;2024-01-06T04:45:14;95799.28;;;5.06;100.00
9139;BME280;4604;48.616;9.548;2024-01-06T04:47:41;95822.16;;;5.14;100.00
9139;BME280;4604;48.616;9.548;2024-01-06T04:50:08;95798.19;;;5.09;100.00
9139;BME280;4604;48.616;9.548;2024-01-06T04:52:35;95805.88;;;5.01;100.00
9139;BME280;4604;48.616;9.548;2024-01-06T04:55:02;95804.91;;;5.02;100.00
9139;BME280;4604;48.616;9.548;2024-01-06T04:57:31;95806.44;;;5.04;100.00
9139;BME280;4604;48.616;9.548;2024-01-06T04:59:57;95824.91;;;5.12;100.00
9139;BME280;4604;48.616;9.548;2024-01-06T05:02:25;95822.44;;;5.11;100.00
9139;BME280;4604;48.616;9.548;2024-01-06T05:04:52;95829.72;;;5.07;100.00
9139;BME280;4604;48.616;9.548;2024-01-06T05:07:19;95858.09;;;5.22;100.00
9139;BME280;4604;48.616;9.548;2024-01-06T05:09:45;95840.34;;;5.15;100.00
9139;BME280;4604;48.616;9.548;2024-01-06T05:12:12;95853.44;;;5.25;100.00
9139;BME280;4604;48.616;9.548;2024-01-06T05:14:40;95855.63;;;5.20;100.00
9139;BME280;4604;48.616;9.548;2024-01-06T05:17:07;95852.44;;;5.17;100.00
9139;BME280;4604;48.616;9.548;2024-01-06T05:19:34;95861.56;;;5.22;100.00
9139;BME280;4604;48.616;9.548;2024-01-06T05:22:01;95865.81;;;5.23;100.00
9139;BME280;4604;48.616;9.548;2024-01-06T05:24:28;95864.88;;;5.24;100.00
9139;BME280;4604;48.616;9.548;2024-01-06T05:26:55;95855.47;;;5.22;100.00
9139;BME280;4604;48.616;9.548;2024-01-06T05:29:21;95856.06;;;5.25;100.00
9139;BME280;4604;48.616;9.548;2024-01-06T05:31:50;95826.53;;;5.04;100.00
9139;BME280;4604;48.616;9.548;2024-01-06T05:34:17;95857.44;;;5.20;100.00
9139;BME280;4604;48.616;9.548;2024-01-06T05:36:44;95837.91;;;4.93;100.00
9139;BME280;4604;48.616;9.548;2024-01-06T05:39:11;95830.28;;;4.80;100.00
9139;BME280;4604;48.616;9.548;2024-01-06T05:41:38;95856.72;;;5.18;100.00
9139;BME280;4604;48.616;9.548;2024-01-06T05:44:05;95846.59;;;4.93;100.00
9139;BME280;4604;48.616;9.548;2024-01-06T05:46:34;95860.25;;;5.07;100.00
9139;BME280;4604;48.616;9.548;2024-01-06T05:49:02;95851.69;;;4.95;100.00
9139;BME280;4604;48.616;9.548;2024-01-06T05:51:29;95851.81;;;4.93;100.00
9139;BME280;4604;48.616;9.548;2024-01-06T05:53:56;95875.28;;;5.05;100.00
9139;BME280;4604;48.616;9.548;2024-01-06T05:56:23;95891.38;;;5.10;100.00
9139;BME280;4604;48.616;9.548;2024-01-06T05:58:51;95872.47;;;4.97;100.00
9139;BME280;4604;48.616;9.548;2024-01-06T06:01:18;95848.84;;;4.77;100.00
9139;BME280;4604;48.616;9.548;2024-01-06T06:03:45;95871.47;;;4.88;100.00
9139;BME280;4604;48.616;9.548;2024-01-06T06:06:13;95868.72;;;4.89;100.00
9139;BME280;4604;48.616;9.548;2024-01-06T06:08:40;95867.88;;;4.89;100.00
9139;BME280;4604;48.616;9.548;2024-01-06T06:11:07;95853.41;;;4.85;100.00
9139;BME280;4604;48.616;9.548;2024-01-06T06:13:37;95874.53;;;4.93;100.00
9139;BME280;4604;48.616;9.548;2024-01-06T06:16:04;95878.94;;;5.02;100.00
9139;BME280;4604;48.616;9.548;2024-01-06T06:18:31;95909.03;;;5.18;100.00
9139;BME280;4604;48.616;9.548;2024-01-06T06:20:58;95906.25;;;5.19;100.00
9139;BME280;4604;48.616;9.548;2024-01-06T06:23:26;95906.16;;;5.21;100.00
9139;BME280;4604;48.616;9.548;2024-01-06T06:25:54;95912.47;;;5.18;100.00
9139;BME280;4604;48.616;9.548;2024-01-06T06:28:20;95921.72;;;5.22;100.00
9139;BME280;4604;48.616;9.548;2024-01-06T06:30:47;95920.75;;;5.23;100.00
9139;BME280;4604;48.616;9.548;2024-01-06T06:33:13;95931.22;;;5.23;100.00
9139;BME280;4604;48.616;9.548;2024-01-06T06:35:40;95916.88;;;5.18;100.00
9139;BME280;4604;48.616;9.548;2024-01-06T06:38:07;95928.03;;;5.20;100.00
9139;BME280;4604;48.616;9.548;2024-01-06T06:40:35;95934.78;;;5.22;100.00
9139;BME280;4604;48.616;9.548;2024-01-06T06:43:02;95933.94;;;5.22;100.00
9139;BME280;4604;48.616;9.548;2024-01-06T06:45:29;95933.72;;;5.25;100.00
9139;BME280;4604;48.616;9.548;2024-01-06T06:47:56;95936.31;;;5.25;100.00
9139;BME280;4604;48.616;9.548;2024-01-06T06:50:23;95927.47;;;5.16;100.00
9139;BME280;4604;48.616;9.548;2024-01-06T06:52:50;95899.69;;;4.94;100.00
9139;BME280;4604;48.616;9.548;2024-01-06T06:55:18;95924.53;;;5.09;100.00
9139;BME280;4604;48.616;9.548;2024-01-06T06:57:46;95882.16;;;4.85;100.00
9139;BME280;4604;48.616;9.548;2024-01-06T07:00:13;95945.38;;;5.21;100.00
9139;BME280;4604;48.616;9.548;2024-01-06T07:02:41;95946.91;;;5.23;100.00
9139;BME280;4604;48.616;9.548;2024-01-06T07:05:08;95955.56;;;5.24;100.00
9139;BME280;4604;48.616;9.548;2024-01-06T07:07:34;95950.72;;;5.19;100.00
9139;BME280;4604;48.616;9.548;2024-01-06T07:10:02;95959.97;;;5.23;100.00
9139;BME280;4604;48.616;9.548;2024-01-06T07:12:30;95973.75;;;5.25;100.00
9139;BME280;4604;48.616;9.548;2024-01-06T07:14:58;95968.53;;;5.25;100.00
9139;BME280;4604;48.616;9.548;2024-01-06T07:17:25;95966.03;;;5.24;100.00
9139;BME280;4604;48.616;9.548;2024-01-06T07:19:52;95935.63;;;5.02;100.00
9139;BME280;4604;48.616;9.548;2024-01-06T07:22:19;95910.09;;;4.84;100.00
9139;BME280;4604;48.616;9.548;2024-01-06T07:24:45;95971.41;;;5.22;100.00
9139;BME280;4604;48.616;9.548;2024-01-06T07:27:12;95957.38;;;5.23;100.00
9139;BME280;4604;48.616;9.548;2024-01-06T07:29:40;95968.53;;;5.25;100.00
9139;BME280;4604;48.616;9.548;2024-01-06T07:32:08;95965.66;;;5.28;100.00
9139;BME280;4604;48.616;9.548;2024-01-06T07:34:35;95963.63;;;5.32;100.00
9139;BME280;4604;48.616;9.548;2024-01-06T07:37:01;95973.75;;;5.25;100.00
9139;BME280;4604;48.616;9.548;2024-01-06T07:39:28;95970.06;;;5.28;100.00
9139;BME280;4604;48.616;9.548;2024-01-06T07:41:55;95965.91;;;5.25;100.00
9139;BME280;4604;48.616;9.548;2024-01-06T07:44:21;95960.63;;;5.15;100.00
9139;BME280;4604;48.616;9.548;2024-01-06T07:46:50;95979.69;;;5.27;100.00
9139;BME280;4604;48.616;9.548;2024-01-06T07:49:25;95982.59;;;5.24;100.00
9139;BME280;4604;48.616;9.548;2024-01-06T07:51:52;95946.03;;;4.92;100.00
9139;BME280;4604;48.616;9.548;2024-01-06T07:54:19;95976.22;;;5.17;100.00
9139;BME280;4604;48.616;9.548;2024-01-06T07:56:46;95922.84;;;4.78;100.00
9139;BME280;4604;48.616;9.548;2024-01-06T07:59:13;95995.47;;;5.16;100.00
9139;BME280;4604;48.616;9.548;2024-01-06T08:01:40;95992.47;;;5.21;100.00
9139;BME280;4604;48.616;9.548;2024-01-06T08:04:08;95960.53;;;4.96;100.00
9139;BME280;4604;48.616;9.548;2024-01-06T08:06:36;95989.97;;;5.19;100.00
9139;BME280;4604;48.616;9.548;2024-01-06T08:09:03;96000.63;;;5.27;100.00
9139;BME280;4604;48.616;9.548;2024-01-06T08:11:30;95997.31;;;5.25;100.00
9139;BME280;4604;48.616;9.548;2024-01-06T08:13:57;95992.91;;;5.26;100.00
9139;BME280;4604;48.616;9.548;2024-01-06T08:16:23;95961.34;;;5.18;100.00
9139;BME280;4604;48.616;9.548;2024-01-06T08:18:50;95992.00;;;5.36;100.00
9139;BME280;4604;48.616;9.548;2024-01-06T08:21:16;95982.75;;;5.32;100.00
9139;BME280;4604;48.616;9.548;2024-01-06T08:23:48;95992.44;;;5.42;100.00
9139;BME280;4604;48.616;9.548;2024-01-06T08:26:17;95962.34;;;5.26;100.00
9139;BME280;4604;48.616;9.548;2024-01-06T08:28:44;95993.34;;;5.31;100.00
9139;BME280;4604;48.616;9.548;2024-01-06T08:31:18;95953.44;;;5.08;100.00
9139;BME280;4604;48.616;9.548;2024-01-06T08:33:44;95995.88;;;5.42;100.00
9139;BME280;4604;48.616;9.548;2024-01-06T08:36:11;96007.16;;;5.43;100.00
9139;BME280;4604;48.616;9.548;2024-01-06T08:38:38;96007.16;;;5.43;100.00
9139;BME280;4604;48.616;9.548;2024-01-06T08:41:06;96014.31;;;5.41;100.00
9139;BME280;4604;48.616;9.548;2024-01-06T08:43:33;96019.22;;;5.34;100.00
9139;BME280;4604;48.616;9.548;2024-01-06T08:45:59;96014.69;;;5.36;100.00
9139;BME280;4604;48.616;9.548;2024-01-06T08:48:27;96021.41;;;5.29;100.00
9139;BME280;4604;48.616;9.548;2024-01-06T08:50:54;95975.88;;;5.10;100.00
9139;BME280;4604;48.616;9.548;2024-01-06T08:53:20;96017.06;;;5.39;100.00
9139;BME280;4604;48.616;9.548;2024-01-06T08:55:47;96017.63;;;5.43;100.00
9139;BME280;4604;48.616;9.548;2024-01-06T08:58:15;96020.31;;;5.52;100.00
9139;BME280;4604;48.616;9.548;2024-01-06T09:00:43;96000.63;;;5.27;100.00
9139;BME280;4604;48.616;9.548;2024-01-06T09:03:10;96025.47;;;5.43;99.80
9139;BME280;4604;48.616;9.548;2024-01-06T09:05:38;96007.66;;;5.27;99.49
9139;BME280;4604;48.616;9.548;2024-01-06T09:08:06;96026.50;;;5.51;99.32
9139;BME280;4604;48.616;9.548;2024-01-06T09:10:32;96028.41;;;5.49;99.84
9139;BME280;4604;48.616;9.548;2024-01-06T09:12:59;96029.41;;;5.58;99.56
9139;BME280;4604;48.616;9.548;2024-01-06T09:15:28;96024.38;;;5.66;99.32
9139;BME280;4604;48.616;9.548;2024-01-06T09:17:55;96026.63;;;5.50;97.65
9139;BME280;4604;48.616;9.548;2024-01-06T09:20:21;95999.34;;;5.22;97.28
9139;BME280;4604;48.616;9.548;2024-01-06T09:22:49;96028.69;;;5.46;97.23
9139;BME280;4604;48.616;9.548;2024-01-06T09:25:15;96033.69;;;5.59;96.24
9139;BME280;4604;48.616;9.548;2024-01-06T09:27:42;96005.38;;;5.43;96.24
9139;BME280;4604;48.616;9.548;2024-01-06T09:30:09;96015.78;;;5.33;96.06
9139;BME280;4604;48.616;9.548;2024-01-06T09:32:37;96051.63;;;5.64;96.02
9139;BME280;4604;48.616;9.548;2024-01-06T09:35:05;96056.00;;;5.63;96.38
9139;BME280;4604;48.616;9.548;2024-01-06T09:37:31;96051.00;;;5.50;94.55
9139;BME280;4604;48.616;9.548;2024-01-06T09:39:58;96055.56;;;5.58;93.93
9139;BME280;4604;48.616;9.548;2024-01-06T09:42:25;96036.53;;;5.46;94.23
9139;BME280;4604;48.616;9.548;2024-01-06T09:44:52;96056.94;;;5.52;94.29
9139;BME280;4604;48.616;9.548;2024-01-06T09:47:22;96060.59;;;5.40;92.25
9139;BME280;4604;48.616;9.548;2024-01-06T09:49:50;96038.50;;;5.12;91.40
9139;BME280;4604;48.616;9.548;2024-01-06T09:52:21;96056.66;;;5.25;93.04
9139;BME280;4604;48.616;9.548;2024-01-06T09:54:52;96044.66;;;5.22;92.45
9139;BME280;4604;48.616;9.548;2024-01-06T09:57:19;96054.22;;;5.33;92.74
9139;BME280;4604;48.616;9.548;2024-01-06T09:59:46;96065.00;;;5.40;94.05
9139;BME280;4604;48.616;9.548;2024-01-06T10:02:14;96071.50;;;5.45;91.47
9139;BME280;4604;48.616;9.548;2024-01-06T10:04:42;96075.63;;;5.48;90.77
9139;BME280;4604;48.616;9.548;2024-01-06T10:07:10;96070.78;;;5.43;90.97
9139;BME280;4604;48.616;9.548;2024-01-06T10:09:40;96046.63;;;5.30;91.44
9139;BME280;4604;48.616;9.548;2024-01-06T10:12:07;96041.94;;;5.33;90.55
9139;BME280;4604;48.616;9.548;2024-01-06T10:14:35;96056.44;;;5.38;91.46
9139;BME280;4604;48.616;9.548;2024-01-06T10:17:01;96062.94;;;5.43;91.48
9139;BME280;4604;48.616;9.548;2024-01-06T10:19:29;96056.25;;;5.29;89.85
9139;BME280;4604;48.616;9.548;2024-01-06T10:21:56;96042.97;;;5.21;89.91
9139;BME280;4604;48.616;9.548;2024-01-06T10:24:27;96034.31;;;5.21;90.19
9139;BME280;4604;48.616;9.548;2024-01-06T10:26:53;96030.94;;;5.30;88.79
9139;BME280;4604;48.616;9.548;2024-01-06T10:29:20;96019.59;;;5.20;90.86
9139;BME280;4604;48.616;9.548;2024-01-06T10:31:47;96016.22;;;5.39;91.11
9139;BME280;4604;48.616;9.548;2024-01-06T10:34:14;96030.00;;;5.41;91.11
9139;BME280;4604;48.616;9.548;2024-01-06T10:36:41;96051.44;;;5.55;91.82
9139;BME280;4604;48.616;9.548;2024-01-06T10:39:08;96063.25;;;5.71;90.49
9139;BME280;4604;48.616;9.548;2024-01-06T10:41:38;96030.66;;;5.54;89.27
9139;BME280;4604;48.616;9.548;2024-01-06T10:44:08;96059.59;;;5.62;88.03
9139;BME280;4604;48.616;9.548;2024-01-06T10:46:36;96057.56;;;5.66;87.96
9139;BME280;4604;48.616;9.548;2024-01-06T10:49:05;96037.84;;;5.62;84.69
9139;BME280;4604;48.616;9.548;2024-01-06T10:51:34;96043.81;;;5.43;85.20
9139;BME280;4604;48.616;9.548;2024-01-06T10:54:01;96057.47;;;5.46;87.36
9139;BME280;4604;48.616;9.548;2024-01-06T10:56:29;96056.81;;;5.54;88.49
9139;BME280;4604;48.616;9.548;2024-01-06T10:58:57;96060.09;;;5.46;90.29
9139;BME280;4604;48.616;9.548;2024-01-06T11:01:24;96056.94;;;5.31;91.71
9139;BME280;4604;48.616;9.548;2024-01-06T11:03:52;96040.94;;;5.25;93.42
9139;BME280;4604;48.616;9.548;2024-01-06T11:06:20;96055.47;;;5.39;92.99
9139;BME280;4604;48.616;9.548;2024-01-06T11:08:51;96064.09;;;5.50;93.96
9139;BME280;4604;48.616;9.548;2024-01-06T11:11:19;96064.56;;;5.34;94.09
9139;BME280;4604;48.616;9.548;2024-01-06T11:13:47;96014.16;;;5.11;94.09
9139;BME280;4604;48.616;9.548;2024-01-06T11:16:36;96050.00;;;5.42;94.49
9139;BME280;4604;48.616;9.548;2024-01-06T11:19:41;96061.03;;;5.45;94.99
9139;BME280;4604;48.616;9.548;2024-01-06T11:22:24;96044.63;;;5.43;94.02
9139;BME280;4604;48.616;9.548;2024-01-06T11:24:52;96053.34;;;5.53;93.71
9139;BME280;4604;48.616;9.548;2024-01-06T11:27:22;96046.63;;;5.61;93.48
9139;BME280;4604;48.616;9.548;2024-01-06T11:29:52;96046.88;;;5.78;92.49
9139;BME280;4604;48.616;9.548;2024-01-06T11:32:25;96052.50;;;5.74;91.64
9139;BME280;4604;48.616;9.548;2024-01-06T11:34:53;96045.09;;;5.79;89.27
9139;BME280;4604;48.616;9.548;2024-01-06T11:37:34;96045.19;;;5.77;90.58
9139;BME280;4604;48.616;9.548;2024-01-06T11:40:03;96034.28;;;5.72;89.35
9139;BME280;4604;48.616;9.548;2024-01-06T11:42:34;96042.06;;;5.84;89.18
9139;BME280;4604;48.616;9.548;2024-01-06T11:45:04;96042.84;;;5.74;90.08
9139;BME280;4604;48.616;9.548;2024-01-06T11:47:34;96035.00;;;5.74;91.42
9139;BME280;4604;48.616;9.548;2024-01-06T11:50:02;95999.78;;;5.57;93.39
9139;BME280;4604;48.616;9.548;2024-01-06T11:52:30;96034.00;;;5.96;91.67
9139;BME280;4604;48.616;9.548;2024-01-06T11:54:57;96035.13;;;5.73;92.09
9139;BME280;4604;48.616;9.548;2024-01-06T11:57:25;96021.59;;;5.68;91.62
9139;BME280;4604;48.616;9.548;2024-01-06T11:59:52;96033.63;;;5.80;91.78
9139;BME280;4604;48.616;9.548;2024-01-06T12:02:19;96010.16;;;5.59;91.46
9139;BME280;4604;48.616;9.548;2024-01-06T12:04:49;96021.03;;;5.64;92.54
9139;BME280;4604;48.616;9.548;2024-01-06T12:07:17;95991.31;;;5.34;92.31
9139;BME280;4604;48.616;9.548;2024-01-06T12:09:45;96024.75;;;5.62;92.68
9139;BME280;4604;48.616;9.548;2024-01-06T12:12:15;95979.75;;;5.37;92.39
9139;BME280;4604;48.616;9.548;2024-01-06T12:14:42;96011.25;;;5.56;91.73
9139;BME280;4604;48.616;9.548;2024-01-06T12:17:09;96015.38;;;5.59;93.16
9139;BME280;4604;48.616;9.548;2024-01-06T12:19:36;96000.41;;;5.40;92.72
9139;BME280;4604;48.616;9.548;2024-01-06T12:22:04;96024.56;;;5.53;94.00
9139;BME280;4604;48.616;9.548;2024-01-06T12:24:32;95984.00;;;5.38;94.51
9139;BME280;4604;48.616;9.548;2024-01-06T12:26:59;95989.25;;;5.38;93.79
9139;BME280;4604;48.616;9.548;2024-01-06T12:29:26;96004.50;;;5.33;96.45
9139;BME280;4604;48.616;9.548;2024-01-06T12:31:55;96018.72;;;5.40;97.18
9139;BME280;4604;48.616;9.548;2024-01-06T12:34:22;96002.59;;;5.35;97.94
9139;BME280;4604;48.616;9.548;2024-01-06T12:36:52;95986.47;;;5.30;98.39
9139;BME280;4604;48.616;9.548;2024-01-06T12:39:22;96015.72;;;5.45;97.73
9139;BME280;4604;48.616;9.548;2024-01-06T12:41:50;96011.44;;;5.44;97.14
9139;BME280;4604;48.616;9.548;2024-01-06T12:44:17;96009.44;;;5.57;97.47
9139;BME280;4604;48.616;9.548;2024-01-06T12:46:43;96008.84;;;5.53;97.69
9139;BME280;4604;48.616;9.548;2024-01-06T12:49:10;96007.75;;;5.46;97.59
9139;BME280;4604;48.616;9.548;2024-01-06T12:51:37;96010.81;;;5.51;98.35
9139;BME280;4604;48.616;9.548;2024-01-06T12:54:04;96008.31;;;5.50;98.47
9139;BME280;4604;48.616;9.548;2024-01-06T12:56:32;96020.88;;;5.56;97.18
9139;BME280;4604;48.616;9.548;2024-01-06T12:58:59;96013.91;;;5.66;96.42
9139;BME280;4604;48.616;9.548;2024-01-06T13:01:25;96008.56;;;5.47;97.17
9139;BME280;4604;48.616;9.548;2024-01-06T13:03:52;96010.38;;;5.46;97.20
9139;BME280;4604;48.616;9.548;2024-01-06T13:06:19;96012.19;;;5.55;96.53
9139;BME280;4604;48.616;9.548;2024-01-06T13:08:46;96018.50;;;5.53;97.50
9139;BME280;4604;48.616;9.548;2024-01-06T13:11:14;96012.72;;;5.49;97.64
9139;BME280;4604;48.616;9.548;2024-01-06T13:13:42;96016.09;;;5.40;98.59
9139;BME280;4604;48.616;9.548;2024-01-06T13:16:09;96020.03;;;5.55;98.52
9139;BME280;4604;48.616;9.548;2024-01-06T13:18:35;96000.63;;;5.27;100.00
9139;BME280;4604;48.616;9.548;2024-01-06T13:21:02;96028.84;;;5.54;100.00
9139;BME280;4604;48.616;9.548;2024-01-06T13:23:29;96014.03;;;5.44;100.00
9139;BME280;4604;48.616;9.548;2024-01-06T13:25:56;96022.66;;;5.55;100.00